createdAt,value
2023-04-11T00:04:09.295Z,10.3
2023-04-11T00:14:58.974Z,10.2
2023-04-11T00:20:09.268Z,10.2
2023-04-11T00:25:58.968Z,10.2
2023-04-11T00:30:58.979Z,10.2
2023-04-11T00:36:09.299Z,10.2
2023-04-11T00:41:59.012Z,10.1
2023-04-11T00:47:09.247Z,10.3
2023-04-11T00:52:09.256Z,10.1
2023-04-11T00:57:58.975Z,10.3
2023-04-11T01:03:09.376Z,10.1
2023-04-11T01:08:58.999Z,10.1
2023-04-11T01:14:09.259Z,10.2
2023-04-11T01:19:59.233Z,10.3
2023-04-11T01:24:58.969Z,10.3
2023-04-11T01:29:59.032Z,10.3
2023-04-11T01:35:09.350Z,10.3
2023-04-11T01:40:58.956Z,10.2
2023-04-11T01:45:58.976Z,10.2
2023-04-11T01:50:58.987Z,10.2
2023-04-11T01:55:58.999Z,10.1
2023-04-11T02:01:09.338Z,10.2
2023-04-11T02:06:58.965Z,10.2
2023-04-11T02:11:59.000Z,10.1
2023-04-11T02:16:58.992Z,10.1
2023-04-11T02:22:09.236Z,10
2023-04-11T02:27:09.267Z,9.9
2023-04-11T02:32:09.364Z,9.7
2023-04-11T02:37:09.289Z,9.7
2023-04-11T02:42:59.004Z,9.6
2023-04-11T02:48:09.264Z,9.7
2023-04-11T02:53:59.009Z,9.7
2023-04-11T02:59:09.372Z,9.7
2023-04-11T03:04:09.317Z,9.8
2023-04-11T03:09:58.994Z,9.8
2023-04-11T03:15:09.236Z,9.9
2023-04-11T03:20:09.254Z,9.8
2023-04-11T03:25:09.287Z,9.6
2023-04-11T03:30:09.275Z,9.7
2023-04-11T03:35:59.029Z,9.7
2023-04-11T03:40:59.001Z,9.6
2023-04-11T03:46:09.294Z,9.5
2023-04-11T03:51:09.278Z,9.5
2023-04-11T03:56:09.279Z,9.5
2023-04-11T04:01:59.038Z,9.4
2023-04-11T04:06:59.025Z,9.5
2023-04-11T04:12:09.294Z,9.4
2023-04-11T04:17:59.017Z,9.3
2023-04-11T04:23:09.279Z,9.4
2023-04-11T04:28:09.289Z,9.3
2023-04-11T04:33:58.997Z,9.3
2023-04-11T04:39:09.270Z,9.3
2023-04-11T04:44:58.986Z,9.3
2023-04-11T04:50:09.242Z,9.2
2023-04-11T04:55:09.306Z,9.3
2023-04-11T05:00:59.003Z,9.3
2023-04-11T05:06:09.303Z,9.4
2023-04-11T05:11:59.000Z,9.4
2023-04-11T05:16:59.167Z,9.4
2023-04-11T05:22:09.284Z,9.5
2023-04-11T05:27:58.991Z,9.5
2023-04-11T05:32:59.035Z,9.5
2023-04-11T05:38:09.260Z,9.6
2023-04-11T05:43:58.999Z,9.6
2023-04-11T05:49:09.311Z,9.6
2023-04-11T05:54:59.006Z,9.7
2023-04-11T06:00:09.301Z,9.5
2023-04-11T06:05:58.991Z,9.5
2023-04-11T06:11:09.275Z,9.4
2023-04-11T06:16:09.347Z,9.4
2023-04-11T06:21:58.986Z,9.5
2023-04-11T06:27:09.291Z,9.5
2023-04-11T06:32:58.988Z,9.5
2023-04-11T06:37:58.998Z,9.5
2023-04-11T06:43:09.276Z,9.5
2023-04-11T06:48:09.317Z,9.5
2023-04-11T06:53:58.984Z,9.6
2023-04-11T06:58:59.087Z,9.7
2023-04-11T07:04:09.480Z,10
2023-04-11T07:09:09.297Z,10
2023-04-11T07:14:58.991Z,10.2
2023-04-11T07:20:09.299Z,10.2
2023-04-11T07:25:09.265Z,10.1
2023-04-11T07:30:09.291Z,10.2
2023-04-11T07:35:09.328Z,10.3
2023-04-11T07:40:09.308Z,11.1
2023-04-11T07:45:59.033Z,10.8
2023-04-11T07:51:09.306Z,11
2023-04-11T07:56:59.011Z,10.2
2023-04-11T08:02:09.341Z,10.7
2023-04-11T08:07:59.003Z,9.9
2023-04-11T08:12:59.008Z,11
2023-04-11T08:23:59.162Z,9.3
2023-04-11T08:28:59.019Z,9.1
2023-04-11T08:34:01.093Z,8.8
2023-04-11T08:39:09.300Z,8.8
2023-04-11T08:44:09.306Z,8.5
2023-04-11T08:49:59.040Z,8.5
2023-04-11T08:54:59.023Z,9
2023-04-11T09:00:09.316Z,8.4
2023-04-11T09:05:59.006Z,8.6
2023-04-11T09:11:09.269Z,9.7
2023-04-11T09:16:09.621Z,9.1
2023-04-11T09:21:59.033Z,10
2023-04-11T09:26:59.019Z,8.1
2023-04-11T09:32:09.304Z,7.3
2023-04-11T09:37:09.319Z,8.1
2023-04-11T09:42:59.032Z,7.5
2023-04-11T09:48:09.365Z,7.9
2023-04-11T09:53:09.324Z,7.3
2023-04-11T09:58:59.017Z,7.3
2023-04-11T10:03:59.234Z,7.1
2023-04-11T10:09:09.318Z,7.6
2023-04-11T10:14:59.030Z,7.6
2023-04-11T10:20:09.323Z,7.2
2023-04-11T10:25:59.013Z,7
2023-04-11T10:30:59.075Z,6.9
2023-04-11T10:36:09.354Z,7.1
2023-04-11T10:41:59.089Z,6.8
2023-04-11T10:47:09.444Z,6.7
2023-04-11T10:52:59.063Z,7.5
2023-04-11T10:58:09.333Z,7.4
2023-04-11T11:03:59.421Z,6.8
2023-04-11T11:09:59.023Z,6.9
2023-04-11T11:14:59.029Z,7.5
2023-04-11T11:20:09.326Z,7.1
2023-04-11T11:25:09.359Z,6.4
2023-04-11T11:30:59.053Z,6.5
2023-04-11T11:37:59.074Z,6.3
2023-04-11T11:43:09.333Z,6.5
2023-04-11T11:48:09.339Z,6.5
2023-04-11T11:53:59.052Z,6.4
2023-04-11T11:58:59.302Z,6.5
2023-04-11T12:04:09.434Z,6.5
2023-04-11T12:09:09.342Z,6.1
2023-04-11T12:14:59.041Z,5.9
2023-04-11T12:19:59.051Z,6.2
2023-04-11T12:24:59.061Z,6.7
2023-04-11T12:30:09.345Z,6.4
2023-04-11T12:35:09.348Z,6.3
2023-04-11T12:40:09.367Z,6.1
2023-04-11T12:51:09.367Z,6
2023-04-11T12:56:19.633Z,6.2
2023-04-11T13:01:59.139Z,6.2
2023-04-11T13:07:09.339Z,5.9
2023-04-11T13:13:05.448Z,5.8
2023-04-11T13:18:00.046Z,5.9
2023-04-11T13:23:10.497Z,6
2023-04-11T13:28:59.252Z,6.2
2023-04-11T13:34:09.387Z,6.3
2023-04-11T13:39:59.097Z,6.6
2023-04-11T13:44:59.136Z,6.3
2023-04-11T13:50:09.378Z,6.4
2023-04-11T13:55:09.358Z,6.1
2023-04-11T14:00:09.370Z,6.1
2023-04-11T14:05:09.390Z,6.1
2023-04-11T14:10:59.102Z,6.1
2023-04-11T14:16:08.058Z,6.3
2023-04-11T14:21:09.361Z,6.5
2023-04-11T14:26:09.379Z,6.2
2023-04-11T14:31:59.131Z,6.4
2023-04-11T14:36:59.158Z,6.2
2023-04-11T14:42:09.364Z,6.5
2023-04-11T14:47:09.388Z,6.3
2023-04-11T14:52:59.088Z,6.1
2023-04-11T14:58:09.367Z,6.2
2023-04-11T15:03:59.328Z,6.4
2023-04-11T15:08:59.128Z,6.3
2023-04-11T15:13:59.117Z,6
2023-04-11T15:19:19.699Z,6.2
2023-04-11T15:24:59.099Z,6.1
2023-04-11T15:29:59.104Z,6.5
2023-04-11T15:35:09.400Z,6.6
2023-04-11T15:40:09.422Z,6.6
2023-04-11T15:45:59.085Z,6.4
2023-04-11T15:50:59.114Z,6.6
2023-04-11T15:55:59.107Z,6.7
2023-04-11T16:01:09.359Z,6.7
2023-04-11T16:06:59.087Z,6.4
2023-04-11T16:12:09.414Z,6.8
2023-04-11T16:17:09.405Z,6.7
2023-04-11T16:22:59.110Z,6.6
2023-04-11T16:27:59.111Z,6.5
2023-04-11T16:33:09.441Z,6.8
2023-04-11T16:38:59.123Z,7.2
2023-04-11T16:44:09.522Z,7
2023-04-11T16:49:59.145Z,7.2
2023-04-11T16:55:09.396Z,7.3
2023-04-11T17:05:59.116Z,7.3
2023-04-11T17:10:59.151Z,7.5
2023-04-11T17:16:09.433Z,7.5
2023-04-11T17:21:59.172Z,7.8
2023-04-11T17:27:09.409Z,7.2
2023-04-11T17:32:09.425Z,6.8
2023-04-11T17:37:59.118Z,6.7
2023-04-11T17:42:59.141Z,7.6
2023-04-11T17:48:09.570Z,7.7
2023-04-11T17:53:59.473Z,7.5
2023-04-11T17:59:09.416Z,6.8
2023-04-11T18:04:09.750Z,6.8
2023-04-11T18:09:59.177Z,6.7
2023-04-11T18:14:59.110Z,6.9
2023-04-11T18:19:59.197Z,7.3
2023-04-11T18:25:09.411Z,6.9
2023-04-11T18:30:09.439Z,6.9
2023-04-11T18:35:09.434Z,6.7
2023-04-11T18:41:01.634Z,6.8
2023-04-11T18:45:59.156Z,6.8
2023-04-11T18:50:59.140Z,6.9
2023-04-11T18:56:09.470Z,7
2023-04-11T19:01:15.528Z,7.1
2023-04-11T19:06:09.967Z,7
2023-04-11T19:11:59.118Z,7
2023-04-11T19:16:59.170Z,7
2023-04-11T19:22:09.429Z,7.1
2023-04-11T19:27:09.426Z,7.1
2023-04-11T19:32:59.246Z,7
2023-04-11T19:38:09.425Z,7.2
2023-04-11T19:43:09.430Z,7.2
2023-04-11T19:48:59.222Z,7.2
2023-04-11T19:54:09.435Z,7.2
2023-04-11T19:59:59.144Z,7.3
2023-04-11T20:04:59.251Z,7.3
2023-04-11T20:10:09.416Z,7.1
2023-04-11T20:15:59.145Z,7
2023-04-11T20:20:59.165Z,7.2
2023-04-11T20:26:09.419Z,7
2023-04-11T20:31:59.160Z,6.9
2023-04-11T20:37:09.428Z,6.8
2023-04-11T20:42:59.145Z,6.9
2023-04-11T20:47:59.234Z,6.9
2023-04-11T20:53:09.450Z,6.9
2023-04-11T20:58:59.160Z,6.9
2023-04-11T21:04:09.463Z,6.9
2023-04-11T21:09:09.430Z,7
2023-04-11T21:14:09.413Z,6.9
2023-04-11T21:19:59.153Z,7
2023-04-11T21:25:09.421Z,6.9
2023-04-11T21:30:09.437Z,6.9
2023-04-11T21:35:09.470Z,6.9
2023-04-11T21:40:59.170Z,6.9
2023-04-11T21:46:09.480Z,6.9
2023-04-11T21:51:09.446Z,6.9
2023-04-11T21:56:19.724Z,6.9
2023-04-11T22:01:59.265Z,7
2023-04-11T22:07:09.420Z,7
2023-04-11T22:12:09.442Z,6.9
2023-04-11T22:17:09.456Z,7
2023-04-11T22:22:59.151Z,7
2023-04-11T22:28:09.418Z,7.2
2023-04-11T22:33:09.442Z,7.3
2023-04-11T22:38:09.460Z,7.5
2023-04-11T22:43:09.438Z,7.6
2023-04-11T22:48:59.153Z,7.6
2023-04-11T22:53:59.348Z,7.7
2023-04-11T22:59:09.423Z,7.9
2023-04-11T23:09:59.146Z,8
2023-04-11T23:15:09.449Z,8.1
2023-04-11T23:20:59.146Z,8.2
2023-04-11T23:25:59.134Z,8.3
2023-04-11T23:30:59.313Z,8.4
2023-04-11T23:36:09.430Z,8.5
2023-04-11T23:41:09.492Z,8.8
2023-04-11T23:46:59.170Z,8.9
2023-04-11T23:51:59.182Z,9.4
2023-04-11T23:57:09.434Z,9.5
